sensor_id;sensor_type;location;lat;lon;timestamp;P1;durP1;ratioP1;P2;durP2;ratioP2
14203;SDS011;7185;51.854;6.622;2023-01-04T00:01:16;4.60;;;2.17;;
14203;SDS011;7185;51.854;6.622;2023-01-04T00:03:49;7.15;;;2.10;;
14203;SDS011;7185;51.854;6.622;2023-01-04T00:06:21;10.85;;;2.20;;
14203;SDS011;7185;51.854;6.622;2023-01-04T00:08:53;6.35;;;2.50;;
14203;SDS011;7185;51.854;6.622;2023-01-04T00:11:26;7.43;;;2.15;;
14203;SDS011;7185;51.854;6.622;2023-01-04T00:13:58;6.72;;;1.92;;
14203;SDS011;7185;51.854;6.622;2023-01-04T00:16:30;12.30;;;2.90;;
14203;SDS011;7185;51.854;6.622;2023-01-04T00:19:01;9.20;;;2.40;;
14203;SDS011;7185;51.854;6.622;2023-01-04T00:21:33;5.78;;;2.03;;
14203;SDS011;7185;51.854;6.622;2023-01-04T00:24:05;6.45;;;2.30;;
14203;SDS011;7185;51.854;6.622;2023-01-04T00:26:39;4.65;;;1.98;;
14203;SDS011;7185;51.854;6.622;2023-01-04T00:29:11;9.13;;;2.50;;
14203;SDS011;7185;51.854;6.622;2023-01-04T00:31:43;6.35;;;2.45;;
14203;SDS011;7185;51.854;6.622;2023-01-04T00:34:15;7.30;;;2.30;;
14203;SDS011;7185;51.854;6.622;2023-01-04T00:36:48;9.48;;;1.92;;
14203;SDS011;7185;51.854;6.622;2023-01-04T00:39:19;8.75;;;3.08;;
14203;SDS011;7185;51.854;6.622;2023-01-04T00:41:52;6.78;;;2.22;;
14203;SDS011;7185;51.854;6.622;2023-01-04T00:44:34;8.82;;;2.25;;
14203;SDS011;7185;51.854;6.622;2023-01-04T00:47:05;11.98;;;2.63;;
14203;SDS011;7185;51.854;6.622;2023-01-04T00:49:37;6.55;;;3.13;;
14203;SDS011;7185;51.854;6.622;2023-01-04T00:52:09;8.48;;;2.75;;
14203;SDS011;7185;51.854;6.622;2023-01-04T00:54:40;7.63;;;2.17;;
14203;SDS011;7185;51.854;6.622;2023-01-04T00:57:13;7.75;;;2.67;;
14203;SDS011;7185;51.854;6.622;2023-01-04T01:03:12;10.23;;;3.10;;
14203;SDS011;7185;51.854;6.622;2023-01-04T01:05:43;6.88;;;2.70;;
14203;SDS011;7185;51.854;6.622;2023-01-04T01:08:15;4.60;;;2.22;;
14203;SDS011;7185;51.854;6.622;2023-01-04T01:11:00;8.77;;;2.90;;
14203;SDS011;7185;51.854;6.622;2023-01-04T01:13:35;8.55;;;2.75;;
14203;SDS011;7185;51.854;6.622;2023-01-04T01:16:08;5.57;;;2.00;;
14203;SDS011;7185;51.854;6.622;2023-01-04T01:18:42;10.35;;;3.33;;
14203;SDS011;7185;51.854;6.622;2023-01-04T01:21:16;6.43;;;2.30;;
14203;SDS011;7185;51.854;6.622;2023-01-04T01:23:49;9.25;;;2.63;;
14203;SDS011;7185;51.854;6.622;2023-01-04T01:26:22;15.25;;;3.15;;
14203;SDS011;7185;51.854;6.622;2023-01-04T01:28:56;9.48;;;2.88;;
14203;SDS011;7185;51.854;6.622;2023-01-04T01:31:29;7.63;;;3.10;;
14203;SDS011;7185;51.854;6.622;2023-01-04T01:34:00;7.65;;;3.10;;
14203;SDS011;7185;51.854;6.622;2023-01-04T01:36:32;7.07;;;3.00;;
14203;SDS011;7185;51.854;6.622;2023-01-04T01:39:04;7.70;;;2.88;;
14203;SDS011;7185;51.854;6.622;2023-01-04T01:41:36;7.57;;;3.30;;
14203;SDS011;7185;51.854;6.622;2023-01-04T01:47:16;9.43;;;4.13;;
14203;SDS011;7185;51.854;6.622;2023-01-04T01:49:50;8.32;;;3.50;;
14203;SDS011;7185;51.854;6.622;2023-01-04T01:52:24;11.43;;;3.58;;
14203;SDS011;7185;51.854;6.622;2023-01-04T01:55:04;12.23;;;3.47;;
14203;SDS011;7185;51.854;6.622;2023-01-04T01:57:41;12.52;;;3.72;;
14203;SDS011;7185;51.854;6.622;2023-01-04T02:00:14;14.05;;;4.05;;
14203;SDS011;7185;51.854;6.622;2023-01-04T02:02:50;9.98;;;3.90;;
14203;SDS011;7185;51.854;6.622;2023-01-04T02:05:27;9.73;;;3.30;;
14203;SDS011;7185;51.854;6.622;2023-01-04T02:08:01;12.65;;;3.65;;
14203;SDS011;7185;51.854;6.622;2023-01-04T02:10:35;11.25;;;3.80;;
14203;SDS011;7185;51.854;6.622;2023-01-04T02:13:08;10.55;;;4.28;;
14203;SDS011;7185;51.854;6.622;2023-01-04T02:15:44;8.88;;;4.28;;
14203;SDS011;7185;51.854;6.622;2023-01-04T02:18:29;9.63;;;3.70;;
14203;SDS011;7185;51.854;6.622;2023-01-04T02:21:06;12.32;;;4.28;;
14203;SDS011;7185;51.854;6.622;2023-01-04T02:26:30;11.52;;;3.88;;
14203;SDS011;7185;51.854;6.622;2023-01-04T02:32:29;13.07;;;4.75;;
14203;SDS011;7185;51.854;6.622;2023-01-04T02:35:10;9.82;;;4.00;;
14203;SDS011;7185;51.854;6.622;2023-01-04T02:37:49;11.27;;;3.67;;
14203;SDS011;7185;51.854;6.622;2023-01-04T02:40:31;12.27;;;3.63;;
14203;SDS011;7185;51.854;6.622;2023-01-04T02:43:13;13.02;;;3.83;;
14203;SDS011;7185;51.854;6.622;2023-01-04T02:46:10;13.25;;;3.63;;
14203;SDS011;7185;51.854;6.622;2023-01-04T02:48:47;10.70;;;3.10;;
14203;SDS011;7185;51.854;6.622;2023-01-04T02:51:37;9.27;;;3.40;;
14203;SDS011;7185;51.854;6.622;2023-01-04T02:54:09;7.97;;;3.58;;
14203;SDS011;7185;51.854;6.622;2023-01-04T02:56:51;7.22;;;3.53;;
14203;SDS011;7185;51.854;6.622;2023-01-04T02:59:33;7.72;;;3.00;;
14203;SDS011;7185;51.854;6.622;2023-01-04T03:02:21;7.43;;;3.28;;
14203;SDS011;7185;51.854;6.622;2023-01-04T03:05:20;12.55;;;3.80;;
14203;SDS011;7185;51.854;6.622;2023-01-04T03:08:14;6.47;;;3.28;;
14203;SDS011;7185;51.854;6.622;2023-01-04T03:10:54;8.52;;;3.35;;
14203;SDS011;7185;51.854;6.622;2023-01-04T03:13:33;6.88;;;3.40;;
14203;SDS011;7185;51.854;6.622;2023-01-04T03:16:10;6.45;;;3.03;;
14203;SDS011;7185;51.854;6.622;2023-01-04T03:18:47;10.52;;;3.60;;
14203;SDS011;7185;51.854;6.622;2023-01-04T03:21:23;5.47;;;3.50;;
14203;SDS011;7185;51.854;6.622;2023-01-04T03:23:58;8.85;;;3.55;;
14203;SDS011;7185;51.854;6.622;2023-01-04T03:26:50;6.97;;;3.55;;
14203;SDS011;7185;51.854;6.622;2023-01-04T03:29:53;6.90;;;3.60;;
14203;SDS011;7185;51.854;6.622;2023-01-04T03:33:03;9.15;;;3.88;;
14203;SDS011;7185;51.854;6.622;2023-01-04T03:35:57;6.18;;;3.20;;
14203;SDS011;7185;51.854;6.622;2023-01-04T03:38:41;7.05;;;3.40;;
14203;SDS011;7185;51.854;6.622;2023-01-04T03:41:33;10.93;;;2.83;;
14203;SDS011;7185;51.854;6.622;2023-01-04T03:44:33;4.75;;;2.97;;
14203;SDS011;7185;51.854;6.622;2023-01-04T03:50:21;8.00;;;2.75;;
14203;SDS011;7185;51.854;6.622;2023-01-04T03:52:57;6.18;;;2.50;;
14203;SDS011;7185;51.854;6.622;2023-01-04T03:55:31;4.78;;;2.92;;
14203;SDS011;7185;51.854;6.622;2023-01-04T03:58:04;4.47;;;2.63;;
14203;SDS011;7185;51.854;6.622;2023-01-04T04:00:36;5.28;;;2.70;;
14203;SDS011;7185;51.854;6.622;2023-01-04T04:03:07;5.38;;;2.17;;
14203;SDS011;7185;51.854;6.622;2023-01-04T04:05:40;3.78;;;2.08;;
14203;SDS011;7185;51.854;6.622;2023-01-04T04:08:30;4.53;;;2.40;;
14203;SDS011;7185;51.854;6.622;2023-01-04T04:11:03;3.33;;;2.15;;
14203;SDS011;7185;51.854;6.622;2023-01-04T04:13:49;3.97;;;2.42;;
14203;SDS011;7185;51.854;6.622;2023-01-04T04:16:21;4.10;;;2.50;;
14203;SDS011;7185;51.854;6.622;2023-01-04T04:18:52;4.38;;;2.47;;
14203;SDS011;7185;51.854;6.622;2023-01-04T04:21:24;3.72;;;2.10;;
14203;SDS011;7185;51.854;6.622;2023-01-04T04:23:56;4.10;;;2.10;;
14203;SDS011;7185;51.854;6.622;2023-01-04T04:26:29;7.43;;;2.10;;
14203;SDS011;7185;51.854;6.622;2023-01-04T04:29:01;5.47;;;2.13;;
14203;SDS011;7185;51.854;6.622;2023-01-04T04:31:32;6.63;;;2.17;;
14203;SDS011;7185;51.854;6.622;2023-01-04T04:34:04;3.95;;;2.33;;
14203;SDS011;7185;51.854;6.622;2023-01-04T04:36:35;5.82;;;2.85;;
14203;SDS011;7185;51.854;6.622;2023-01-04T04:39:07;3.70;;;2.00;;
14203;SDS011;7185;51.854;6.622;2023-01-04T04:41:41;6.43;;;2.13;;
14203;SDS011;7185;51.854;6.622;2023-01-04T04:44:13;4.95;;;1.90;;
14203;SDS011;7185;51.854;6.622;2023-01-04T04:46:47;4.15;;;2.00;;
14203;SDS011;7185;51.854;6.622;2023-01-04T04:49:20;3.67;;;2.10;;
14203;SDS011;7185;51.854;6.622;2023-01-04T04:51:52;4.60;;;1.95;;
14203;SDS011;7185;51.854;6.622;2023-01-04T04:54:23;5.20;;;2.00;;
14203;SDS011;7185;51.854;6.622;2023-01-04T04:56:56;3.55;;;1.80;;
14203;SDS011;7185;51.854;6.622;2023-01-04T04:59:28;3.42;;;2.05;;
14203;SDS011;7185;51.854;6.622;2023-01-04T05:02:00;2.97;;;1.83;;
14203;SDS011;7185;51.854;6.622;2023-01-04T05:04:31;4.20;;;2.42;;
14203;SDS011;7185;51.854;6.622;2023-01-04T05:07:03;3.38;;;2.10;;
14203;SDS011;7185;51.854;6.622;2023-01-04T05:09:34;3.90;;;1.70;;
14203;SDS011;7185;51.854;6.622;2023-01-04T05:12:07;5.07;;;2.08;;
14203;SDS011;7185;51.854;6.622;2023-01-04T05:14:59;4.25;;;1.70;;
14203;SDS011;7185;51.854;6.622;2023-01-04T05:17:32;4.60;;;1.83;;
14203;SDS011;7185;51.854;6.622;2023-01-04T05:20:03;4.45;;;2.15;;
14203;SDS011;7185;51.854;6.622;2023-01-04T05:22:35;4.10;;;2.03;;
14203;SDS011;7185;51.854;6.622;2023-01-04T05:25:07;3.00;;;1.77;;
14203;SDS011;7185;51.854;6.622;2023-01-04T05:27:42;3.47;;;2.53;;
14203;SDS011;7185;51.854;6.622;2023-01-04T05:30:14;4.32;;;2.00;;
14203;SDS011;7185;51.854;6.622;2023-01-04T05:33:04;3.25;;;1.98;;
14203;SDS011;7185;51.854;6.622;2023-01-04T05:35:37;3.80;;;2.00;;
14203;SDS011;7185;51.854;6.622;2023-01-04T05:38:08;4.32;;;2.20;;
14203;SDS011;7185;51.854;6.622;2023-01-04T05:40:40;3.75;;;2.22;;
14203;SDS011;7185;51.854;6.622;2023-01-04T05:43:13;4.22;;;2.30;;
14203;SDS011;7185;51.854;6.622;2023-01-04T05:45:46;3.88;;;2.50;;
14203;SDS011;7185;51.854;6.622;2023-01-04T05:48:19;3.95;;;2.15;;
14203;SDS011;7185;51.854;6.622;2023-01-04T05:50:52;6.68;;;2.30;;
14203;SDS011;7185;51.854;6.622;2023-01-04T05:53:24;3.13;;;2.10;;
14203;SDS011;7185;51.854;6.622;2023-01-04T05:55:55;4.85;;;2.35;;
14203;SDS011;7185;51.854;6.622;2023-01-04T05:58:29;3.97;;;2.00;;
14203;SDS011;7185;51.854;6.622;2023-01-04T06:01:00;4.60;;;2.35;;
14203;SDS011;7185;51.854;6.622;2023-01-04T06:03:33;3.65;;;2.40;;
14203;SDS011;7185;51.854;6.622;2023-01-04T06:06:05;4.85;;;2.33;;
14203;SDS011;7185;51.854;6.622;2023-01-04T06:08:36;5.72;;;2.72;;
14203;SDS011;7185;51.854;6.622;2023-01-04T06:11:08;4.13;;;2.45;;
14203;SDS011;7185;51.854;6.622;2023-01-04T06:13:41;4.45;;;2.50;;
14203;SDS011;7185;51.854;6.622;2023-01-04T06:16:12;4.75;;;2.78;;
14203;SDS011;7185;51.854;6.622;2023-01-04T06:18:44;4.30;;;2.50;;
14203;SDS011;7185;51.854;6.622;2023-01-04T06:21:15;8.57;;;3.03;;
14203;SDS011;7185;51.854;6.622;2023-01-04T06:23:47;5.22;;;3.08;;
14203;SDS011;7185;51.854;6.622;2023-01-04T06:26:18;5.40;;;3.25;;
14203;SDS011;7185;51.854;6.622;2023-01-04T06:28:52;5.47;;;3.67;;
14203;SDS011;7185;51.854;6.622;2023-01-04T06:31:24;7.75;;;4.00;;
14203;SDS011;7185;51.854;6.622;2023-01-04T06:33:55;5.93;;;3.83;;
14203;SDS011;7185;51.854;6.622;2023-01-04T06:36:27;7.18;;;3.97;;
14203;SDS011;7185;51.854;6.622;2023-01-04T06:38:59;6.68;;;3.72;;
14203;SDS011;7185;51.854;6.622;2023-01-04T06:41:31;6.38;;;3.97;;
14203;SDS011;7185;51.854;6.622;2023-01-04T06:44:04;7.55;;;4.47;;
14203;SDS011;7185;51.854;6.622;2023-01-04T06:46:36;6.05;;;3.90;;
14203;SDS011;7185;51.854;6.622;2023-01-04T06:49:07;7.70;;;3.97;;
14203;SDS011;7185;51.854;6.622;2023-01-04T06:51:39;10.20;;;4.00;;
14203;SDS011;7185;51.854;6.622;2023-01-04T06:54:11;7.05;;;4.18;;
14203;SDS011;7185;51.854;6.622;2023-01-04T06:56:43;8.30;;;4.15;;
14203;SDS011;7185;51.854;6.622;2023-01-04T06:59:16;6.70;;;3.95;;
14203;SDS011;7185;51.854;6.622;2023-01-04T07:01:47;7.72;;;4.13;;
14203;SDS011;7185;51.854;6.622;2023-01-04T07:06:52;7.15;;;3.70;;
14203;SDS011;7185;51.854;6.622;2023-01-04T07:09:23;10.00;;;4.38;;
14203;SDS011;7185;51.854;6.622;2023-01-04T07:11:55;9.18;;;4.57;;
14203;SDS011;7185;51.854;6.622;2023-01-04T07:14:28;7.82;;;4.20;;
14203;SDS011;7185;51.854;6.622;2023-01-04T07:17:00;7.05;;;4.82;;
14203;SDS011;7185;51.854;6.622;2023-01-04T07:19:31;8.27;;;4.32;;
14203;SDS011;7185;51.854;6.622;2023-01-04T07:22:03;10.13;;;4.60;;
14203;SDS011;7185;51.854;6.622;2023-01-04T07:24:35;6.90;;;4.18;;
14203;SDS011;7185;51.854;6.622;2023-01-04T07:27:06;8.27;;;3.90;;
14203;SDS011;7185;51.854;6.622;2023-01-04T07:29:39;6.20;;;3.88;;
14203;SDS011;7185;51.854;6.622;2023-01-04T07:32:12;7.05;;;3.80;;
14203;SDS011;7185;51.854;6.622;2023-01-04T07:34:44;6.07;;;3.80;;
14203;SDS011;7185;51.854;6.622;2023-01-04T07:37:15;8.50;;;4.30;;
14203;SDS011;7185;51.854;6.622;2023-01-04T07:39:47;10.98;;;4.00;;
14203;SDS011;7185;51.854;6.622;2023-01-04T07:42:19;7.70;;;3.72;;
14203;SDS011;7185;51.854;6.622;2023-01-04T07:44:52;5.70;;;3.63;;
14203;SDS011;7185;51.854;6.622;2023-01-04T07:47:23;8.38;;;4.05;;
14203;SDS011;7185;51.854;6.622;2023-01-04T07:49:55;7.60;;;4.28;;
14203;SDS011;7185;51.854;6.622;2023-01-04T07:52:27;8.48;;;4.28;;
14203;SDS011;7185;51.854;6.622;2023-01-04T07:54:58;6.30;;;3.97;;
14203;SDS011;7185;51.854;6.622;2023-01-04T07:57:30;7.30;;;3.60;;
14203;SDS011;7185;51.854;6.622;2023-01-04T08:00:03;6.68;;;4.25;;
14203;SDS011;7185;51.854;6.622;2023-01-04T08:02:35;7.85;;;3.75;;
14203;SDS011;7185;51.854;6.622;2023-01-04T08:05:07;7.00;;;3.53;;
14203;SDS011;7185;51.854;6.622;2023-01-04T08:07:39;6.53;;;3.80;;
14203;SDS011;7185;51.854;6.622;2023-01-04T08:10:10;6.05;;;3.40;;
14203;SDS011;7185;51.854;6.622;2023-01-04T08:12:42;5.35;;;3.40;;
14203;SDS011;7185;51.854;6.622;2023-01-04T08:15:15;5.75;;;3.75;;
14203;SDS011;7185;51.854;6.622;2023-01-04T08:17:47;6.20;;;3.88;;
14203;SDS011;7185;51.854;6.622;2023-01-04T08:20:19;6.43;;;3.75;;
14203;SDS011;7185;51.854;6.622;2023-01-04T08:22:50;11.50;;;4.70;;
14203;SDS011;7185;51.854;6.622;2023-01-04T08:25:22;6.50;;;4.22;;
14203;SDS011;7185;51.854;6.622;2023-01-04T08:27:53;7.00;;;4.10;;
14203;SDS011;7185;51.854;6.622;2023-01-04T08:30:26;7.18;;;4.07;;
14203;SDS011;7185;51.854;6.622;2023-01-04T08:32:58;7.80;;;4.28;;
14203;SDS011;7185;51.854;6.622;2023-01-04T08:35:29;7.72;;;4.60;;
14203;SDS011;7185;51.854;6.622;2023-01-04T08:38:01;6.55;;;4.13;;
14203;SDS011;7185;51.854;6.622;2023-01-04T08:40:32;8.73;;;4.70;;
14203;SDS011;7185;51.854;6.622;2023-01-04T08:43:04;5.95;;;3.97;;
14203;SDS011;7185;51.854;6.622;2023-01-04T08:45:37;5.80;;;3.90;;
14203;SDS011;7185;51.854;6.622;2023-01-04T08:48:09;7.05;;;3.63;;
14203;SDS011;7185;51.854;6.622;2023-01-04T08:50:40;7.90;;;4.20;;
14203;SDS011;7185;51.854;6.622;2023-01-04T08:53:12;7.13;;;4.20;;
14203;SDS011;7185;51.854;6.622;2023-01-04T08:55:47;6.47;;;4.07;;
14203;SDS011;7185;51.854;6.622;2023-01-04T08:58:19;5.43;;;3.90;;
14203;SDS011;7185;51.854;6.622;2023-01-04T09:00:58;8.63;;;4.43;;
14203;SDS011;7185;51.854;6.622;2023-01-04T09:03:31;8.82;;;4.32;;
14203;SDS011;7185;51.854;6.622;2023-01-04T09:06:03;7.07;;;4.32;;
14203;SDS011;7185;51.854;6.622;2023-01-04T09:08:36;8.45;;;4.82;;
14203;SDS011;7185;51.854;6.622;2023-01-04T09:11:10;11.15;;;4.43;;
14203;SDS011;7185;51.854;6.622;2023-01-04T09:13:43;10.95;;;4.78;;
14203;SDS011;7185;51.854;6.622;2023-01-04T09:16:17;8.23;;;4.78;;
14203;SDS011;7185;51.854;6.622;2023-01-04T09:18:50;6.85;;;4.15;;
14203;SDS011;7185;51.854;6.622;2023-01-04T09:21:22;9.00;;;4.40;;
14203;SDS011;7185;51.854;6.622;2023-01-04T09:23:55;8.65;;;4.40;;
14203;SDS011;7185;51.854;6.622;2023-01-04T09:26:27;6.22;;;3.95;;
14203;SDS011;7185;51.854;6.622;2023-01-04T09:28:59;12.85;;;3.70;;
14203;SDS011;7185;51.854;6.622;2023-01-04T09:31:32;9.30;;;4.25;;
14203;SDS011;7185;51.854;6.622;2023-01-04T09:34:03;9.93;;;4.45;;
14203;SDS011;7185;51.854;6.622;2023-01-04T09:36:35;7.28;;;4.32;;
14203;SDS011;7185;51.854;6.622;2023-01-04T09:39:07;7.72;;;4.40;;
14203;SDS011;7185;51.854;6.622;2023-01-04T09:41:42;9.75;;;3.95;;
14203;SDS011;7185;51.854;6.622;2023-01-04T09:44:20;6.30;;;3.67;;
14203;SDS011;7185;51.854;6.622;2023-01-04T09:47:03;8.52;;;4.22;;
14203;SDS011;7185;51.854;6.622;2023-01-04T09:49:38;8.68;;;4.85;;
14203;SDS011;7185;51.854;6.622;2023-01-04T09:52:15;8.82;;;4.47;;
14203;SDS011;7185;51.854;6.622;2023-01-04T09:54:51;7.05;;;4.38;;
14203;SDS011;7185;51.854;6.622;2023-01-04T09:57:27;7.28;;;4.00;;
14203;SDS011;7185;51.854;6.622;2023-01-04T10:00:04;9.18;;;4.20;;
14203;SDS011;7185;51.854;6.622;2023-01-04T10:02:46;10.88;;;4.40;;
14203;SDS011;7185;51.854;6.622;2023-01-04T10:05:28;10.27;;;4.07;;
14203;SDS011;7185;51.854;6.622;2023-01-04T10:08:01;11.85;;;4.93;;
14203;SDS011;7185;51.854;6.622;2023-01-04T10:10:37;9.52;;;3.85;;
14203;SDS011;7185;51.854;6.622;2023-01-04T10:13:20;9.38;;;3.97;;
14203;SDS011;7185;51.854;6.622;2023-01-04T10:16:05;6.80;;;3.78;;
14203;SDS011;7185;51.854;6.622;2023-01-04T10:18:48;10.55;;;4.68;;
14203;SDS011;7185;51.854;6.622;2023-01-04T10:21:30;7.28;;;4.00;;
14203;SDS011;7185;51.854;6.622;2023-01-04T10:24:21;9.68;;;3.75;;
14203;SDS011;7185;51.854;6.622;2023-01-04T10:27:04;7.07;;;3.92;;
14203;SDS011;7185;51.854;6.622;2023-01-04T10:29:39;10.25;;;4.13;;
14203;SDS011;7185;51.854;6.622;2023-01-04T10:32:26;6.45;;;3.50;;
14203;SDS011;7185;51.854;6.622;2023-01-04T10:35:14;7.13;;;3.35;;
14203;SDS011;7185;51.854;6.622;2023-01-04T10:37:51;12.00;;;3.85;;
14203;SDS011;7185;51.854;6.622;2023-01-04T10:40:27;5.07;;;3.30;;
14203;SDS011;7185;51.854;6.622;2023-01-04T10:43:02;10.18;;;3.20;;
14203;SDS011;7185;51.854;6.622;2023-01-04T10:45:42;10.65;;;4.63;;
14203;SDS011;7185;51.854;6.622;2023-01-04T10:48:17;8.05;;;2.88;;
14203;SDS011;7185;51.854;6.622;2023-01-04T10:50:59;7.97;;;2.90;;
14203;SDS011;7185;51.854;6.622;2023-01-04T10:53:32;6.93;;;2.97;;
14203;SDS011;7185;51.854;6.622;2023-01-04T10:56:12;7.32;;;3.15;;
14203;SDS011;7185;51.854;6.622;2023-01-04T10:58:50;5.70;;;2.83;;
14203;SDS011;7185;51.854;6.622;2023-01-04T11:01:27;5.32;;;2.72;;
14203;SDS011;7185;51.854;6.622;2023-01-04T11:04:01;5.38;;;2.35;;
14203;SDS011;7185;51.854;6.622;2023-01-04T11:06:41;4.82;;;2.92;;
14203;SDS011;7185;51.854;6.622;2023-01-04T11:09:17;10.63;;;3.10;;
14203;SDS011;7185;51.854;6.622;2023-01-04T11:11:56;5.20;;;2.75;;
14203;SDS011;7185;51.854;6.622;2023-01-04T11:14:28;7.32;;;3.13;;
14203;SDS011;7185;51.854;6.622;2023-01-04T11:17:00;6.07;;;2.90;;
14203;SDS011;7185;51.854;6.622;2023-01-04T11:19:35;5.40;;;2.63;;
14203;SDS011;7185;51.854;6.622;2023-01-04T11:22:10;6.20;;;3.13;;
14203;SDS011;7185;51.854;6.622;2023-01-04T11:24:47;4.70;;;2.85;;
14203;SDS011;7185;51.854;6.622;2023-01-04T11:27:23;4.60;;;2.60;;
14203;SDS011;7185;51.854;6.622;2023-01-04T11:32:33;4.00;;;2.70;;
14203;SDS011;7185;51.854;6.622;2023-01-04T11:35:12;4.47;;;2.80;;
14203;SDS011;7185;51.854;6.622;2023-01-04T11:37:45;4.10;;;2.50;;
14203;SDS011;7185;51.854;6.622;2023-01-04T11:40:18;4.65;;;3.00;;
14203;SDS011;7185;51.854;6.622;2023-01-04T11:43:01;7.72;;;3.40;;
14203;SDS011;7185;51.854;6.622;2023-01-04T11:45:51;6.68;;;4.30;;
14203;SDS011;7185;51.854;6.622;2023-01-04T11:48:32;6.70;;;3.85;;
14203;SDS011;7185;51.854;6.622;2023-01-04T11:51:14;8.88;;;4.70;;
14203;SDS011;7185;51.854;6.622;2023-01-04T11:53:56;8.38;;;4.72;;
14203;SDS011;7185;51.854;6.622;2023-01-04T11:56:30;9.45;;;3.90;;
14203;SDS011;7185;51.854;6.622;2023-01-04T11:59:12;11.20;;;4.55;;
14203;SDS011;7185;51.854;6.622;2023-01-04T12:01:45;7.18;;;4.32;;
14203;SDS011;7185;51.854;6.622;2023-01-04T12:04:21;7.28;;;4.35;;
14203;SDS011;7185;51.854;6.622;2023-01-04T12:06:54;9.90;;;4.38;;
14203;SDS011;7185;51.854;6.622;2023-01-04T12:09:32;6.88;;;4.20;;
14203;SDS011;7185;51.854;6.622;2023-01-04T12:12:04;11.10;;;4.32;;
14203;SDS011;7185;51.854;6.622;2023-01-04T12:14:36;5.85;;;3.70;;
14203;SDS011;7185;51.854;6.622;2023-01-04T12:17:10;7.68;;;3.92;;
14203;SDS011;7185;51.854;6.622;2023-01-04T12:19:45;5.65;;;3.60;;
14203;SDS011;7185;51.854;6.622;2023-01-04T12:22:20;7.97;;;4.03;;
14203;SDS011;7185;51.854;6.622;2023-01-04T12:24:56;5.95;;;3.58;;
14203;SDS011;7185;51.854;6.622;2023-01-04T12:27:29;4.93;;;2.75;;
14203;SDS011;7185;51.854;6.622;2023-01-04T12:30:01;6.90;;;2.95;;
14203;SDS011;7185;51.854;6.622;2023-01-04T12:32:38;4.50;;;2.72;;
14203;SDS011;7185;51.854;6.622;2023-01-04T12:45:12;5.50;;;2.80;;
14203;SDS011;7185;51.854;6.622;2023-01-04T12:47:47;7.65;;;2.67;;
14203;SDS011;7185;51.854;6.622;2023-01-04T12:53:53;4.95;;;2.45;;
14203;SDS011;7185;51.854;6.622;2023-01-04T12:59:55;4.15;;;2.20;;
14203;SDS011;7185;51.854;6.622;2023-01-04T13:02:30;3.47;;;2.00;;
14203;SDS011;7185;51.854;6.622;2023-01-04T13:05:03;3.33;;;1.80;;
14203;SDS011;7185;51.854;6.622;2023-01-04T13:08:08;4.13;;;2.10;;
14203;SDS011;7185;51.854;6.622;2023-01-04T13:10:41;5.15;;;2.17;;
14203;SDS011;7185;51.854;6.622;2023-01-04T13:13:19;6.05;;;1.90;;
14203;SDS011;7185;51.854;6.622;2023-01-04T13:16:02;5.30;;;2.10;;
14203;SDS011;7185;51.854;6.622;2023-01-04T13:21:29;3.95;;;2.28;;
14203;SDS011;7185;51.854;6.622;2023-01-04T13:24:05;4.18;;;1.95;;
14203;SDS011;7185;51.854;6.622;2023-01-04T13:26:49;5.75;;;1.92;;
14203;SDS011;7185;51.854;6.622;2023-01-04T13:29:22;5.45;;;2.20;;
14203;SDS011;7185;51.854;6.622;2023-01-04T13:31:56;2.80;;;1.88;;
14203;SDS011;7185;51.854;6.622;2023-01-04T13:34:30;3.38;;;1.48;;
14203;SDS011;7185;51.854;6.622;2023-01-04T13:37:05;5.10;;;1.55;;
14203;SDS011;7185;51.854;6.622;2023-01-04T13:39:43;3.67;;;1.90;;
14203;SDS011;7185;51.854;6.622;2023-01-04T13:42:22;3.83;;;1.80;;
14203;SDS011;7185;51.854;6.622;2023-01-04T13:47:59;2.72;;;1.60;;
14203;SDS011;7185;51.854;6.622;2023-01-04T13:50:33;2.88;;;1.58;;
14203;SDS011;7185;51.854;6.622;2023-01-04T13:53:18;8.25;;;1.95;;
14203;SDS011;7185;51.854;6.622;2023-01-04T13:55:51;4.13;;;1.70;;
14203;SDS011;7185;51.854;6.622;2023-01-04T13:58:24;3.42;;;1.85;;
14203;SDS011;7185;51.854;6.622;2023-01-04T14:00:57;4.30;;;1.70;;
14203;SDS011;7185;51.854;6.622;2023-01-04T14:03:32;4.85;;;1.70;;
14203;SDS011;7185;51.854;6.622;2023-01-04T14:06:11;5.10;;;2.10;;
14203;SDS011;7185;51.854;6.622;2023-01-04T14:08:49;2.97;;;1.58;;
14203;SDS011;7185;51.854;6.622;2023-01-04T14:11:25;7.05;;;1.70;;
14203;SDS011;7185;51.854;6.622;2023-01-04T14:14:30;3.90;;;1.42;;
14203;SDS011;7185;51.854;6.622;2023-01-04T14:17:15;3.30;;;1.20;;
14203;SDS011;7185;51.854;6.622;2023-01-04T14:19:50;1.60;;;0.95;;
14203;SDS011;7185;51.854;6.622;2023-01-04T14:22:24;2.40;;;0.90;;
14203;SDS011;7185;51.854;6.622;2023-01-04T14:24:59;2.33;;;1.15;;
14203;SDS011;7185;51.854;6.622;2023-01-04T14:27:51;2.15;;;1.25;;
14203;SDS011;7185;51.854;6.622;2023-01-04T14:30:23;3.10;;;1.60;;
14203;SDS011;7185;51.854;6.622;2023-01-04T14:32:55;2.95;;;1.48;;
14203;SDS011;7185;51.854;6.622;2023-01-04T14:35:29;5.50;;;1.50;;
14203;SDS011;7185;51.854;6.622;2023-01-04T14:38:00;2.58;;;1.20;;
14203;SDS011;7185;51.854;6.622;2023-01-04T14:40:36;4.85;;;1.67;;
14203;SDS011;7185;51.854;6.622;2023-01-04T14:46:03;3.65;;;1.63;;
14203;SDS011;7185;51.854;6.622;2023-01-04T14:48:35;3.33;;;1.70;;
14203;SDS011;7185;51.854;6.622;2023-01-04T14:51:07;3.72;;;1.92;;
14203;SDS011;7185;51.854;6.622;2023-01-04T14:53:38;6.07;;;2.30;;
14203;SDS011;7185;51.854;6.622;2023-01-04T14:56:13;4.53;;;1.95;;
14203;SDS011;7185;51.854;6.622;2023-01-04T14:58:45;5.32;;;2.25;;
14203;SDS011;7185;51.854;6.622;2023-01-04T15:01:16;6.97;;;2.63;;
14203;SDS011;7185;51.854;6.622;2023-01-04T15:03:48;5.85;;;2.72;;
14203;SDS011;7185;51.854;6.622;2023-01-04T15:06:19;6.03;;;3.05;;
14203;SDS011;7185;51.854;6.622;2023-01-04T15:08:51;7.80;;;2.75;;
14203;SDS011;7185;51.854;6.622;2023-01-04T15:11:24;5.93;;;2.97;;
14203;SDS011;7185;51.854;6.622;2023-01-04T15:13:57;6.00;;;3.25;;
14203;SDS011;7185;51.854;6.622;2023-01-04T15:16:29;6.13;;;2.97;;
14203;SDS011;7185;51.854;6.622;2023-01-04T15:19:01;6.72;;;3.25;;
14203;SDS011;7185;51.854;6.622;2023-01-04T15:21:32;6.55;;;3.45;;
14203;SDS011;7185;51.854;6.622;2023-01-04T15:24:04;9.50;;;3.35;;
14203;SDS011;7185;51.854;6.622;2023-01-04T15:26:38;6.75;;;3.25;;
14203;SDS011;7185;51.854;6.622;2023-01-04T15:29:10;9.43;;;3.13;;
14203;SDS011;7185;51.854;6.622;2023-01-04T15:31:41;5.20;;;3.33;;
14203;SDS011;7185;51.854;6.622;2023-01-04T15:34:13;9.15;;;3.70;;
14203;SDS011;7185;51.854;6.622;2023-01-04T15:36:49;8.23;;;3.45;;
14203;SDS011;7185;51.854;6.622;2023-01-04T15:39:20;8.93;;;3.20;;
14203;SDS011;7185;51.854;6.622;2023-01-04T15:41:54;8.27;;;2.90;;
14203;SDS011;7185;51.854;6.622;2023-01-04T15:44:42;4.82;;;2.97;;
14203;SDS011;7185;51.854;6.622;2023-01-04T15:47:14;5.57;;;3.60;;
14203;SDS011;7185;51.854;6.622;2023-01-04T15:49:46;5.18;;;2.92;;
14203;SDS011;7185;51.854;6.622;2023-01-04T15:52:17;7.38;;;3.38;;
14203;SDS011;7185;51.854;6.622;2023-01-04T15:54:49;7.45;;;3.53;;
14203;SDS011;7185;51.854;6.622;2023-01-04T15:57:22;7.13;;;3.67;;
14203;SDS011;7185;51.854;6.622;2023-01-04T15:59:53;5.78;;;3.13;;
14203;SDS011;7185;51.854;6.622;2023-01-04T16:02:25;6.18;;;3.55;;
14203;SDS011;7185;51.854;6.622;2023-01-04T16:04:57;8.63;;;3.63;;
14203;SDS011;7185;51.854;6.622;2023-01-04T16:07:28;6.28;;;3.60;;
14203;SDS011;7185;51.854;6.622;2023-01-04T16:10:00;9.13;;;3.72;;
14203;SDS011;7185;51.854;6.622;2023-01-04T16:12:33;8.10;;;4.53;;
14203;SDS011;7185;51.854;6.622;2023-01-04T16:15:14;9.45;;;4.82;;
14203;SDS011;7185;51.854;6.622;2023-01-04T16:17:48;9.95;;;4.93;;
14203;SDS011;7185;51.854;6.622;2023-01-04T16:20:19;11.60;;;4.80;;
14203;SDS011;7185;51.854;6.622;2023-01-04T16:22:51;11.27;;;4.97;;
14203;SDS011;7185;51.854;6.622;2023-01-04T16:25:23;8.73;;;4.80;;
14203;SDS011;7185;51.854;6.622;2023-01-04T16:27:56;10.02;;;4.55;;
14203;SDS011;7185;51.854;6.622;2023-01-04T16:30:31;8.40;;;4.57;;
14203;SDS011;7185;51.854;6.622;2023-01-04T16:33:04;12.32;;;5.03;;
14203;SDS011;7185;51.854;6.622;2023-01-04T16:35:35;11.80;;;4.75;;